createdAt,value
2019-01-21T00:00:48.320Z,21.20
2019-01-21T00:03:17.941Z,19.53
2019-01-21T00:05:47.695Z,18.70
2019-01-21T00:08:17.294Z,19.03
2019-01-21T00:10:46.915Z,21.43
2019-01-21T00:13:16.517Z,20.07
2019-01-21T00:15:46.446Z,20.20
2019-01-21T00:18:16.087Z,18.53
2019-01-21T00:20:45.860Z,20.47
2019-01-21T00:23:15.467Z,20.53
2019-01-21T00:25:45.869Z,20.37
2019-01-21T00:28:15.594Z,20.20
2019-01-21T00:30:45.291Z,20.90
2019-01-21T00:33:15.011Z,20.57
2019-01-21T00:35:44.611Z,20.80
2019-01-21T00:38:14.297Z,20.73
2019-01-21T00:40:44.006Z,20.07
2019-01-21T00:43:13.732Z,20.67
2019-01-21T00:45:43.337Z,20.77
2019-01-21T00:48:13.059Z,20.30
2019-01-21T00:50:43.268Z,19.97
2019-01-21T00:53:12.887Z,20.60
2019-01-21T00:55:42.810Z,20.13
2019-01-21T00:58:12.423Z,19.63
2019-01-21T01:00:42.603Z,20.00
2019-01-21T01:03:12.400Z,19.77
2019-01-21T01:05:42.127Z,18.73
2019-01-21T01:08:11.847Z,19.67
2019-01-21T01:10:41.453Z,19.77
2019-01-21T01:13:11.102Z,19.60
2019-01-21T01:15:40.717Z,19.90
2019-01-21T01:18:10.546Z,20.30
2019-01-21T01:20:40.153Z,19.30
2019-01-21T01:23:09.791Z,18.27
2019-01-21T01:25:39.502Z,19.80
2019-01-21T01:28:09.306Z,19.27
2019-01-21T01:30:39.583Z,19.73
2019-01-21T01:33:09.321Z,20.07
2019-01-21T01:35:39.088Z,18.97
2019-01-21T01:38:08.866Z,19.63
2019-01-21T01:40:39.084Z,21.07
2019-01-21T01:43:09.118Z,20.07
2019-01-21T01:45:38.998Z,20.63
2019-01-21T01:48:08.710Z,21.03
2019-01-21T01:50:38.535Z,19.83
2019-01-21T01:53:08.229Z,19.80
2019-01-21T01:55:37.941Z,20.87
2019-01-21T01:58:07.696Z,20.03
2019-01-21T02:00:37.468Z,18.83
2019-01-21T02:03:07.450Z,17.90
2019-01-21T02:05:37.158Z,20.37
2019-01-21T02:08:06.789Z,18.70
2019-01-21T02:10:36.384Z,18.47
2019-01-21T02:13:06.614Z,18.57
2019-01-21T02:15:36.377Z,18.43
2019-01-21T02:18:06.176Z,17.53
2019-01-21T02:20:35.894Z,17.53
2019-01-21T02:23:05.586Z,18.73
2019-01-21T02:25:38.771Z,17.60
2019-01-21T02:28:36.914Z,18.13
2019-01-21T02:31:28.677Z,16.67
2019-01-21T02:34:01.392Z,17.33
2019-01-21T02:36:49.002Z,19.07
2019-01-21T02:39:24.523Z,16.90
2019-01-21T02:41:57.438Z,18.30
2019-01-21T02:44:33.392Z,17.30
2019-01-21T02:47:08.898Z,15.07
2019-01-21T02:50:11.420Z,17.20
2019-01-21T02:53:18.580Z,16.53
2019-01-21T02:55:57.405Z,16.03
2019-01-21T02:58:32.997Z,17.27
2019-01-21T03:01:05.910Z,15.87
2019-01-21T03:03:52.828Z,16.60
2019-01-21T03:06:28.246Z,15.77
2019-01-21T03:09:15.923Z,16.90
2019-01-21T03:12:06.517Z,17.43
2019-01-21T03:14:59.807Z,16.77
2019-01-21T03:17:56.298Z,16.90
2019-01-21T03:20:34.509Z,17.87
2019-01-21T03:23:07.398Z,16.90
2019-01-21T03:25:45.746Z,15.97
2019-01-21T03:28:30.234Z,16.63
2019-01-21T03:31:14.497Z,16.30
2019-01-21T03:34:03.545Z,16.93
2019-01-21T03:36:45.131Z,17.33
2019-01-21T03:39:41.916Z,16.93
2019-01-21T03:42:14.698Z,17.10
2019-01-21T03:44:53.443Z,17.37
2019-01-21T03:47:28.831Z,15.33
2019-01-21T03:50:16.219Z,15.23
2019-01-21T03:52:57.506Z,16.10
2019-01-21T03:55:27.988Z,17.23
2019-01-21T03:58:09.076Z,16.77
2019-01-21T04:00:41.977Z,16.60
2019-01-21T04:03:35.174Z,15.93
2019-01-21T04:06:08.116Z,16.03
2019-01-21T04:08:46.683Z,16.40
2019-01-21T04:11:20.130Z,16.00
2019-01-21T04:13:58.622Z,17.23
2019-01-21T04:16:46.561Z,16.03
2019-01-21T04:19:37.174Z,16.87
2019-01-21T04:22:18.575Z,15.90
2019-01-21T04:24:51.280Z,16.17
2019-01-21T04:27:32.671Z,16.63
2019-01-21T04:30:19.987Z,15.10
2019-01-21T04:33:04.933Z,16.40
2019-01-21T04:35:41.051Z,17.17
2019-01-21T04:38:33.222Z,16.97
2019-01-21T04:41:06.034Z,16.27
2019-01-21T04:43:47.432Z,18.73
2019-01-21T04:46:22.754Z,17.50
2019-01-21T04:49:07.316Z,16.93
2019-01-21T04:51:56.783Z,16.47
2019-01-21T04:54:46.915Z,16.53
2019-01-21T04:57:35.037Z,16.90
2019-01-21T05:00:23.804Z,14.70
2019-01-21T05:03:14.376Z,15.90
2019-01-21T05:05:50.145Z,14.67
2019-01-21T05:08:55.693Z,15.40
2019-01-21T05:12:01.683Z,15.50
2019-01-21T05:14:40.409Z,15.97
2019-01-21T05:17:27.962Z,17.37
2019-01-21T05:20:03.476Z,17.97
2019-01-21T05:22:42.127Z,17.73
2019-01-21T05:25:20.739Z,17.93
2019-01-21T05:27:57.623Z,16.87
2019-01-21T05:30:42.213Z,17.33
2019-01-21T05:33:20.900Z,17.47
2019-01-21T05:36:17.556Z,17.07
2019-01-21T05:38:58.832Z,17.17
2019-01-21T05:41:43.314Z,17.83
2019-01-21T05:44:40.122Z,18.30
2019-01-21T05:47:18.597Z,17.10
2019-01-21T05:50:16.678Z,17.47
2019-01-21T05:52:58.001Z,17.80
2019-01-21T05:55:56.620Z,18.87
2019-01-21T05:58:56.117Z,18.67
2019-01-21T06:01:44.942Z,17.23
2019-01-21T06:04:26.774Z,16.60
2019-01-21T06:07:25.042Z,17.40
2019-01-21T06:10:03.488Z,18.40
2019-01-21T06:12:53.968Z,17.97
2019-01-21T06:15:26.951Z,17.60
2019-01-21T06:18:05.541Z,19.03
2019-01-21T06:20:56.058Z,19.20
2019-01-21T06:23:28.773Z,18.43
2019-01-21T06:26:10.373Z,19.17
2019-01-21T06:29:02.290Z,18.83
2019-01-21T06:31:46.988Z,19.03
2019-01-21T06:34:36.159Z,18.53
2019-01-21T06:37:11.556Z,18.87
2019-01-21T06:40:02.008Z,19.97
2019-01-21T06:42:55.507Z,19.40
2019-01-21T06:45:30.805Z,19.57
2019-01-21T06:48:12.691Z,19.13
2019-01-21T06:51:07.641Z,19.87
2019-01-21T06:53:46.375Z,18.67
2019-01-21T06:56:47.474Z,20.73
2019-01-21T06:59:39.504Z,19.70
2019-01-21T07:02:30.238Z,20.47
2019-01-21T07:05:05.758Z,21.43
2019-01-21T07:08:01.065Z,21.83
2019-01-21T07:10:36.616Z,22.07
2019-01-21T07:13:36.146Z,21.53
2019-01-21T07:16:27.860Z,22.53
2019-01-21T07:19:00.641Z,21.57
2019-01-21T07:22:00.269Z,21.67
2019-01-21T07:24:38.438Z,21.57
2019-01-21T07:27:46.457Z,21.70
2019-01-21T07:30:25.783Z,22.43
2019-01-21T07:33:07.190Z,21.73
2019-01-21T07:35:54.533Z,21.93
2019-01-21T07:38:30.125Z,22.07
2019-01-21T07:41:17.440Z,21.87
2019-01-21T07:43:55.920Z,21.57
2019-01-21T07:46:34.582Z,22.07
2019-01-21T07:49:25.245Z,23.00
2019-01-21T07:52:21.662Z,23.40
2019-01-21T07:55:05.989Z,22.67
2019-01-21T07:57:55.039Z,22.57
2019-01-21T08:00:45.388Z,22.93
2019-01-21T08:03:29.375Z,23.50
2019-01-21T08:06:08.094Z,25.63
2019-01-21T08:08:55.781Z,23.73
2019-01-21T08:11:40.334Z,23.57
2019-01-21T08:14:20.423Z,24.87
2019-01-21T08:17:20.110Z,27.40
2019-01-21T08:20:04.658Z,34.17
2019-01-21T08:22:49.043Z,37.00
2019-01-21T08:25:38.464Z,28.07
2019-01-21T08:28:23.009Z,25.20
2019-01-21T08:31:04.740Z,25.23
2019-01-21T08:33:46.186Z,24.37
2019-01-21T08:36:27.486Z,23.07
2019-01-21T08:39:28.500Z,28.33
2019-01-21T08:42:12.895Z,25.73
2019-01-21T08:45:01.883Z,27.93
2019-01-21T08:47:43.274Z,24.43
2019-01-21T08:50:18.588Z,26.03
2019-01-21T08:53:06.283Z,24.87
2019-01-21T08:55:41.540Z,26.20
2019-01-21T08:58:36.238Z,26.57
2019-01-21T09:01:11.708Z,27.60
2019-01-21T09:03:50.281Z,31.43
2019-01-21T09:06:31.902Z,25.07
2019-01-21T09:09:13.362Z,26.77
2019-01-21T09:11:51.900Z,25.93
2019-01-21T09:14:24.868Z,26.40
2019-01-21T09:17:13.478Z,27.40
2019-01-21T09:20:10.644Z,27.70
2019-01-21T09:22:47.073Z,27.97
2019-01-21T09:25:37.846Z,28.97
2019-01-21T09:28:17.846Z,32.37
2019-01-21T09:30:59.444Z,27.13
2019-01-21T09:33:44.035Z,28.30
2019-01-21T09:36:27.913Z,27.93
2019-01-21T09:39:04.787Z,27.77
2019-01-21T09:41:43.540Z,26.83
2019-01-21T09:44:16.943Z,28.60
2019-01-21T09:46:45.969Z,28.37
2019-01-21T09:49:14.764Z,28.13
2019-01-21T09:51:48.522Z,27.67
2019-01-21T09:54:20.428Z,28.77
2019-01-21T09:56:50.241Z,28.50
2019-01-21T09:59:22.496Z,27.53
2019-01-21T10:01:55.201Z,28.33
2019-01-21T10:04:43.175Z,27.13
2019-01-21T10:07:24.582Z,27.20
2019-01-21T10:10:22.716Z,26.87
2019-01-21T10:13:04.006Z,26.60
2019-01-21T10:15:42.794Z,27.17
2019-01-21T10:18:24.470Z,26.70
2019-01-21T10:20:57.178Z,27.30
2019-01-21T10:23:41.770Z,27.40
2019-01-21T10:26:36.938Z,28.00
2019-01-21T10:29:24.401Z,28.50
2019-01-21T10:32:13.302Z,26.60
2019-01-21T10:34:45.993Z,26.20
2019-01-21T10:37:52.884Z,27.70
2019-01-21T10:40:44.578Z,27.27
2019-01-21T10:43:28.862Z,26.07
2019-01-21T10:46:07.213Z,26.13
2019-01-21T10:48:42.570Z,27.87
2019-01-21T10:51:19.048Z,27.20
2019-01-21T10:54:00.794Z,27.87
2019-01-21T10:56:33.522Z,28.33
2019-01-21T10:59:11.792Z,29.63
2019-01-21T11:01:44.515Z,26.90
2019-01-21T11:04:47.308Z,28.00
2019-01-21T11:07:37.658Z,28.57
2019-01-21T11:10:32.592Z,28.83
2019-01-21T11:13:14.501Z,27.93
2019-01-21T11:15:47.195Z,29.90
2019-01-21T11:18:37.776Z,28.27
2019-01-21T11:21:22.246Z,28.33
2019-01-21T11:24:03.761Z,28.53
2019-01-21T11:26:39.023Z,27.90
2019-01-21T11:29:20.564Z,28.60
2019-01-21T11:32:07.948Z,27.93
2019-01-21T11:34:59.850Z,28.07
2019-01-21T11:37:32.540Z,27.67
2019-01-21T11:40:13.811Z,27.87
2019-01-21T11:42:46.494Z,27.80
2019-01-21T11:45:22.006Z,28.33
2019-01-21T11:48:12.530Z,28.97
2019-01-21T11:50:57.112Z,28.30
2019-01-21T11:53:32.358Z,27.80
2019-01-21T11:56:07.642Z,27.33
2019-01-21T11:58:40.534Z,25.97
2019-01-21T12:01:15.766Z,27.50
2019-01-21T12:04:03.588Z,27.30
2019-01-21T12:06:45.306Z,27.47
2019-01-21T12:09:17.975Z,28.03
2019-01-21T12:11:53.406Z,29.17
2019-01-21T12:14:41.360Z,29.97
2019-01-21T12:17:35.187Z,31.33
2019-01-21T12:20:24.255Z,32.03
2019-01-21T12:23:05.582Z,30.10
2019-01-21T12:25:56.105Z,31.63
2019-01-21T12:28:46.566Z,31.70
2019-01-21T12:31:22.176Z,30.23
2019-01-21T12:33:57.802Z,27.57
2019-01-21T12:36:30.511Z,30.33
2019-01-21T12:39:19.755Z,27.93
2019-01-21T12:42:07.506Z,29.30
2019-01-21T12:44:59.620Z,30.80
2019-01-21T12:47:44.108Z,31.27
2019-01-21T12:50:24.127Z,29.87
2019-01-21T12:53:05.605Z,29.00
2019-01-21T12:55:43.870Z,31.13
2019-01-21T12:58:22.042Z,31.27
2019-01-21T13:01:09.641Z,30.00
2019-01-21T13:04:04.522Z,29.93
2019-01-21T13:07:02.681Z,33.80
2019-01-21T13:09:35.382Z,30.17
2019-01-21T13:12:11.110Z,33.30
2019-01-21T13:14:43.812Z,32.00
2019-01-21T13:17:16.598Z,34.27
2019-01-21T13:19:52.205Z,30.60
2019-01-21T13:22:39.877Z,32.83
2019-01-21T13:25:36.951Z,31.43
2019-01-21T13:28:31.763Z,32.40
2019-01-21T13:31:22.421Z,32.37
2019-01-21T13:34:03.764Z,33.53
2019-01-21T13:36:46.213Z,33.73
2019-01-21T13:39:39.757Z,32.73
2019-01-21T13:42:12.587Z,33.50
2019-01-21T13:44:45.272Z,32.47
2019-01-21T13:47:42.213Z,33.10
2019-01-21T13:50:17.602Z,30.93
2019-01-21T13:52:55.811Z,31.37
2019-01-21T13:55:58.329Z,30.60
2019-01-21T13:58:59.432Z,30.13
2019-01-21T14:01:56.473Z,31.40
2019-01-21T14:04:34.821Z,29.60
2019-01-21T14:07:07.530Z,31.53
2019-01-21T14:09:56.487Z,29.30
2019-01-21T14:12:38.268Z,29.90
2019-01-21T14:15:32.929Z,30.50
2019-01-21T14:18:26.554Z,29.93
2019-01-21T14:21:11.222Z,28.27
2019-01-21T14:23:52.240Z,30.17
2019-01-21T14:27:19.131Z,29.70
2019-01-21T14:29:51.920Z,31.23
2019-01-21T14:32:39.576Z,29.43
2019-01-21T14:35:15.153Z,29.03
2019-01-21T14:37:59.830Z,29.87
2019-01-21T14:40:50.658Z,30.07
2019-01-21T14:43:29.285Z,29.60
2019-01-21T14:46:17.147Z,29.20
2019-01-21T14:48:53.302Z,30.08
2019-01-21T14:51:47.226Z,30.70
2019-01-21T14:54:22.671Z,29.17
2019-01-21T14:57:17.482Z,28.43
2019-01-21T15:00:08.582Z,28.80
2019-01-21T15:02:46.976Z,28.53
2019-01-21T15:05:45.751Z,29.83
2019-01-21T15:08:18.407Z,30.67
2019-01-21T15:11:09.064Z,29.30
2019-01-21T15:13:47.738Z,29.47
2019-01-21T15:16:29.850Z,28.07
2019-01-21T15:19:11.186Z,29.27
2019-01-21T15:21:52.959Z,29.73
2019-01-21T15:24:46.496Z,28.67
2019-01-21T15:27:25.060Z,27.73
2019-01-21T15:30:03.216Z,29.47
2019-01-21T15:32:38.553Z,29.40
2019-01-21T15:35:20.759Z,30.07
2019-01-21T15:37:59.854Z,29.17
2019-01-21T15:40:53.913Z,31.87
2019-01-21T15:43:35.044Z,31.73
2019-01-21T15:46:16.784Z,27.30
2019-01-21T15:49:14.545Z,29.23
2019-01-21T15:51:49.994Z,29.60
2019-01-21T15:54:28.776Z,30.60
2019-01-21T15:57:07.206Z,28.97
2019-01-21T16:00:02.746Z,27.13
2019-01-21T16:02:44.006Z,31.20
2019-01-21T16:05:25.595Z,29.33
2019-01-21T16:07:58.301Z,29.27
2019-01-21T16:10:40.082Z,30.77
2019-01-21T16:13:15.832Z,28.73
2019-01-21T16:15:48.514Z,30.63
2019-01-21T16:18:27.410Z,30.77
2019-01-21T16:21:16.620Z,33.10
2019-01-21T16:24:22.699Z,29.90
2019-01-21T16:26:55.418Z,28.07
2019-01-21T16:29:31.166Z,31.03
2019-01-21T16:32:01.211Z,42.33
2019-01-21T16:34:40.123Z,35.53
2019-01-21T16:37:18.656Z,29.63
2019-01-21T16:40:10.689Z,29.40
2019-01-21T16:42:40.280Z,30.40
2019-01-21T16:45:11.510Z,29.60
2019-01-21T16:47:41.178Z,28.03
2019-01-21T16:50:11.258Z,30.70
2019-01-21T16:52:40.989Z,29.63
2019-01-21T16:55:10.570Z,33.03
2019-01-21T16:57:40.183Z,29.40
2019-01-21T17:00:12.928Z,28.00
2019-01-21T17:02:42.542Z,24.40
2019-01-21T17:05:14.151Z,26.93
2019-01-21T17:07:43.762Z,26.77
2019-01-21T17:10:13.758Z,29.77
2019-01-21T17:12:43.352Z,36.17
2019-01-21T17:15:16.506Z,31.97
2019-01-21T17:17:46.181Z,29.97
2019-01-21T17:20:21.370Z,30.87
2019-01-21T17:22:50.970Z,28.90
2019-01-21T17:25:20.845Z,31.30
2019-01-21T17:27:50.436Z,31.00
2019-01-21T17:30:20.177Z,31.40
2019-01-21T17:32:51.378Z,33.67
2019-01-21T17:35:21.013Z,34.13
2019-01-21T17:37:50.786Z,31.33
2019-01-21T17:40:20.486Z,27.00
2019-01-21T17:42:50.087Z,26.40
2019-01-21T17:45:19.968Z,28.00
2019-01-21T17:47:49.565Z,33.80
2019-01-21T17:50:19.319Z,27.37
2019-01-21T17:52:48.920Z,26.90
2019-01-21T17:55:18.624Z,26.20
2019-01-21T17:57:48.251Z,22.03
2019-01-21T18:00:20.844Z,26.53
2019-01-21T18:02:50.455Z,26.87
2019-01-21T18:05:20.359Z,29.30
2019-01-21T18:07:49.960Z,28.67
2019-01-21T18:10:19.658Z,25.50
2019-01-21T18:12:49.273Z,24.63
2019-01-21T18:15:19.236Z,22.53
2019-01-21T18:17:49.349Z,21.80
2019-01-21T18:20:21.128Z,23.03
2019-01-21T18:22:50.726Z,26.33
2019-01-21T18:25:20.451Z,25.53
2019-01-21T18:27:50.546Z,30.00
2019-01-21T18:30:22.257Z,33.50
2019-01-21T18:32:51.972Z,28.27
2019-01-21T18:35:21.674Z,25.60
2019-01-21T18:37:51.264Z,28.57
2019-01-21T18:40:21.624Z,24.23
2019-01-21T18:42:51.310Z,23.73
2019-01-21T18:45:25.073Z,23.20
2019-01-21T18:47:54.766Z,25.60
2019-01-21T18:50:24.458Z,24.57
2019-01-21T18:52:54.508Z,24.67
2019-01-21T18:55:24.222Z,24.83
2019-01-21T18:57:55.950Z,23.87
2019-01-21T19:00:25.630Z,25.30
2019-01-21T19:02:55.555Z,26.43
2019-01-21T19:05:25.251Z,26.60
2019-01-21T19:07:54.862Z,30.47
2019-01-21T19:10:24.506Z,26.80
2019-01-21T19:12:54.114Z,27.23
2019-01-21T19:15:26.823Z,32.70
2019-01-21T19:17:56.601Z,48.83
2019-01-21T19:20:26.333Z,32.27
2019-01-21T19:22:55.996Z,26.33
2019-01-21T19:25:25.646Z,26.20
2019-01-21T19:27:55.426Z,25.33
2019-01-21T19:30:27.294Z,27.70
2019-01-21T19:32:57.050Z,25.90
2019-01-21T19:35:32.819Z,26.83
2019-01-21T19:38:02.789Z,25.93
2019-01-21T19:40:32.401Z,27.90
2019-01-21T19:43:02.469Z,26.70
2019-01-21T19:45:32.105Z,26.23
2019-01-21T19:48:01.814Z,24.93
2019-01-21T19:50:31.526Z,25.33
2019-01-21T19:53:01.421Z,24.63
2019-01-21T19:55:57.960Z,25.87
2019-01-21T19:58:27.673Z,23.37
2019-01-21T20:00:58.093Z,24.75
2019-01-21T20:03:27.735Z,24.67
2019-01-21T20:05:57.628Z,24.43
2019-01-21T20:08:27.271Z,23.33
2019-01-21T20:10:56.939Z,22.63
2019-01-21T20:13:26.577Z,23.63
2019-01-21T20:15:56.256Z,24.27
2019-01-21T20:18:25.885Z,28.03
2019-01-21T20:20:55.703Z,31.67
2019-01-21T20:23:25.334Z,27.47
2019-01-21T20:25:54.931Z,22.90
2019-01-21T20:28:24.553Z,23.60
2019-01-21T20:30:54.150Z,24.17
2019-01-21T20:33:23.788Z,23.13
2019-01-21T20:35:53.384Z,21.93
2019-01-21T20:38:23.081Z,26.30
2019-01-21T20:40:52.694Z,24.30
2019-01-21T20:43:22.314Z,22.50
2019-01-21T20:45:51.942Z,22.17
2019-01-21T20:48:21.725Z,22.53
2019-01-21T20:50:51.338Z,41.87
2019-01-21T20:53:20.949Z,36.73
2019-01-21T20:55:50.664Z,29.57
2019-01-21T20:58:20.702Z,22.13
2019-01-21T21:00:50.478Z,21.93
2019-01-21T21:03:20.285Z,21.20
2019-01-21T21:05:50.159Z,21.30
2019-01-21T21:08:19.798Z,21.93
2019-01-21T21:10:49.507Z,22.10
2019-01-21T21:13:19.306Z,23.33
2019-01-21T21:15:48.980Z,24.70
2019-01-21T21:18:18.604Z,23.23
2019-01-21T21:20:48.212Z,25.37
2019-01-21T21:23:18.410Z,25.92
2019-01-21T21:25:48.008Z,26.87
2019-01-21T21:28:17.642Z,27.33
2019-01-21T21:30:47.237Z,24.20
2019-01-21T21:33:16.872Z,25.97
2019-01-21T21:35:46.472Z,23.03
2019-01-21T21:38:16.102Z,23.13
2019-01-21T21:40:45.710Z,23.87
2019-01-21T21:43:15.346Z,24.33
2019-01-21T21:45:44.946Z,22.98
2019-01-21T21:48:14.668Z,26.67
2019-01-21T21:50:44.582Z,25.50
2019-01-21T21:53:14.213Z,23.73
2019-01-21T21:55:43.823Z,25.73
2019-01-21T21:58:13.446Z,24.33
2019-01-21T22:00:43.049Z,26.07
2019-01-21T22:03:12.787Z,24.60
2019-01-21T22:05:42.410Z,22.63
2019-01-21T22:08:12.033Z,24.43
2019-01-21T22:10:41.642Z,25.67
2019-01-21T22:13:11.271Z,22.57
2019-01-21T22:15:40.881Z,26.47
2019-01-21T22:18:10.506Z,27.53
2019-01-21T22:20:40.116Z,24.40
2019-01-21T22:23:09.755Z,24.73
2019-01-21T22:25:39.470Z,23.53
2019-01-21T22:28:09.096Z,24.67
2019-01-21T22:30:38.801Z,23.27
2019-01-21T22:33:08.475Z,23.73
2019-01-21T22:35:38.219Z,22.27
2019-01-21T22:38:07.935Z,23.57
2019-01-21T22:40:37.577Z,22.77
2019-01-21T22:43:07.202Z,22.10
2019-01-21T22:45:36.907Z,22.47
2019-01-21T22:48:06.532Z,24.20
2019-01-21T22:50:36.351Z,22.97
2019-01-21T22:53:05.965Z,22.17
2019-01-21T22:55:35.585Z,22.00
2019-01-21T22:58:05.268Z,22.33
2019-01-21T23:00:39.716Z,21.47
2019-01-21T23:03:09.775Z,23.73
2019-01-21T23:05:39.469Z,22.40
2019-01-21T23:08:09.091Z,21.87
2019-01-21T23:10:39.049Z,22.57
2019-01-21T23:13:08.801Z,22.77
2019-01-21T23:15:38.581Z,23.50
2019-01-21T23:18:08.562Z,23.80
2019-01-21T23:20:38.205Z,22.17
2019-01-21T23:23:08.182Z,22.70
2019-01-21T23:25:37.815Z,22.57
2019-01-21T23:28:07.416Z,22.23
2019-01-21T23:30:37.152Z,23.07
2019-01-21T23:33:07.011Z,23.87
2019-01-21T23:35:37.075Z,24.73
2019-01-21T23:38:06.858Z,24.30
2019-01-21T23:40:36.491Z,23.90
2019-01-21T23:43:06.107Z,22.93
2019-01-21T23:45:35.923Z,24.20
2019-01-21T23:48:05.930Z,25.57
2019-01-21T23:50:35.567Z,23.23
2019-01-21T23:53:05.419Z,23.67
2019-01-21T23:55:35.175Z,22.33
2019-01-21T23:58:04.845Z,24.53
